createdAt,value
2024-02-14T00:04:09.154Z,100720.38
2024-02-14T00:09:08.547Z,100728.22
2024-02-14T00:14:08.364Z,100715.94
2024-02-14T00:19:07.445Z,100709.41
2024-02-14T00:24:07.301Z,100706.91
2024-02-14T00:29:06.304Z,100712.34
2024-02-14T00:34:06.182Z,100713.91
2024-02-14T00:39:05.324Z,100708.19
2024-02-14T00:44:04.487Z,100709.13
2024-02-14T00:49:03.454Z,100711.09
2024-02-14T00:54:02.601Z,100712.78
2024-02-14T00:59:02.049Z,100716.31
2024-02-14T01:04:00.969Z,100716.50
2024-02-14T01:09:00.035Z,100718.69
2024-02-14T01:13:59.013Z,100709.25
2024-02-14T01:18:57.998Z,100704.88
2024-02-14T01:23:56.890Z,100701.03
2024-02-14T01:28:55.986Z,100704.25
2024-02-14T01:33:55.105Z,100705.19
2024-02-14T01:38:54.140Z,100716.13
2024-02-14T01:43:53.769Z,100698.63
2024-02-14T01:48:53.143Z,100702.78
2024-02-14T01:53:54.619Z,100695.81
2024-02-14T01:58:54.433Z,100682.91
2024-02-14T02:03:54.299Z,100689.44
2024-02-14T02:08:53.514Z,100684.31
2024-02-14T02:13:52.321Z,100679.94
2024-02-14T02:18:51.571Z,100683.47
2024-02-14T02:23:50.881Z,100689.94
2024-02-14T02:28:49.807Z,100683.22
2024-02-14T02:33:48.897Z,100681.78
2024-02-14T02:38:48.021Z,100676.84
2024-02-14T02:43:46.971Z,100678.53
2024-02-14T02:48:48.913Z,100672.78
2024-02-14T02:53:48.637Z,100669.44
2024-02-14T02:58:49.697Z,100665.63
2024-02-14T03:03:48.746Z,100662.00
2024-02-14T03:08:47.564Z,100661.72
2024-02-14T03:13:46.870Z,100661.06
2024-02-14T03:18:45.971Z,100652.94
2024-02-14T03:23:47.182Z,100656.91
2024-02-14T03:28:46.299Z,100659.25
2024-02-14T03:33:45.519Z,100648.28
2024-02-14T03:38:44.667Z,100645.47
2024-02-14T03:43:43.947Z,100649.00
2024-02-14T03:48:45.146Z,100643.41
2024-02-14T03:53:44.421Z,100645.09
2024-02-14T03:58:43.599Z,100638.47
2024-02-14T04:03:42.585Z,100648.34
2024-02-14T04:08:41.484Z,100629.88
2024-02-14T04:13:40.952Z,100632.22
2024-02-14T04:18:40.182Z,100622.53
2024-02-14T04:23:40.432Z,100623.56
2024-02-14T04:28:41.837Z,100627.66
2024-02-14T04:33:41.102Z,100615.97
2024-02-14T04:38:40.215Z,100625.72
2024-02-14T04:43:39.031Z,100627.84
2024-02-14T04:48:38.768Z,100620.38
2024-02-14T04:53:37.753Z,100618.44
2024-02-14T04:58:37.637Z,100618.78
2024-02-14T05:03:37.871Z,100609.94
2024-02-14T05:08:36.887Z,100625.84
2024-02-14T05:13:37.974Z,100619.09
2024-02-14T05:18:37.043Z,100630.00
2024-02-14T05:23:37.005Z,100627.63
2024-02-14T05:28:35.916Z,100620.78
2024-02-14T05:33:34.967Z,100622.44
2024-02-14T05:38:35.511Z,100615.00
2024-02-14T05:43:35.480Z,100610.03
2024-02-14T05:48:34.516Z,100604.56
2024-02-14T05:53:34.584Z,100600.75
2024-02-14T05:58:33.432Z,100589.66
2024-02-14T06:03:32.319Z,100593.69
2024-02-14T06:08:31.319Z,100584.28
2024-02-14T06:13:30.248Z,100577.53
2024-02-14T06:18:29.476Z,100580.50
2024-02-14T06:23:28.933Z,100586.94
2024-02-14T06:28:29.103Z,100597.97
2024-02-14T06:33:28.168Z,100602.50
2024-02-14T06:38:27.284Z,100602.66
2024-02-14T06:43:26.110Z,100602.09
2024-02-14T06:48:25.947Z,100604.13
2024-02-14T06:53:25.316Z,100608.91
2024-02-14T06:58:24.234Z,100605.91
2024-02-14T07:03:23.031Z,100619.19
2024-02-14T07:08:21.983Z,100611.59
2024-02-14T07:13:20.917Z,100603.97
2024-02-14T07:18:20.675Z,100604.38
2024-02-14T07:23:20.350Z,100599.06
2024-02-14T07:28:19.184Z,100591.97
2024-02-14T07:33:18.128Z,100593.69
2024-02-14T07:38:17.750Z,100589.06
2024-02-14T07:43:16.532Z,100581.84
2024-02-14T07:48:15.482Z,100577.34
2024-02-14T07:53:14.670Z,100572.72
2024-02-14T07:58:14.070Z,100569.94
2024-02-14T08:03:13.025Z,100565.63
2024-02-14T08:08:11.964Z,100555.97
2024-02-14T08:13:12.426Z,100540.88
2024-02-14T08:18:11.529Z,100541.59
2024-02-14T08:23:10.512Z,100538.47
2024-02-14T08:28:10.665Z,100541.63
2024-02-14T08:33:09.778Z,100540.81
2024-02-14T08:38:09.483Z,100537.03
2024-02-14T08:43:08.488Z,100533.16
2024-02-14T08:53:07.822Z,100511.06
2024-02-14T08:58:07.104Z,100509.13
2024-02-14T09:03:07.474Z,100512.44
2024-02-14T09:08:06.749Z,100520.00
2024-02-14T09:13:08.365Z,100531.00
2024-02-14T09:18:07.473Z,100517.38
2024-02-14T09:23:06.524Z,100516.75
2024-02-14T09:28:05.997Z,100514.53
2024-02-14T09:33:05.337Z,100513.56
2024-02-14T09:38:04.828Z,100519.19
2024-02-14T09:43:09.189Z,100530.38
2024-02-14T09:48:09.685Z,100531.63
2024-02-14T09:53:11.078Z,100536.78
2024-02-14T09:58:10.735Z,100532.41
2024-02-14T10:03:10.124Z,100537.88
2024-02-14T10:08:10.168Z,100525.53
2024-02-14T10:13:08.942Z,100532.91
2024-02-14T10:18:10.689Z,100544.28
2024-02-14T10:23:11.801Z,100536.72
2024-02-14T10:28:11.411Z,100534.94
2024-02-14T10:33:17.545Z,100530.25
2024-02-14T10:38:23.954Z,100525.44
2024-02-14T10:43:22.821Z,100534.28
2024-02-14T10:48:28.024Z,100524.78
2024-02-14T10:53:30.527Z,100514.91
2024-02-14T10:58:32.164Z,100515.63
2024-02-14T11:03:31.712Z,100504.22
2024-02-14T11:08:32.843Z,100497.34
2024-02-14T11:13:34.548Z,100482.31
2024-02-14T11:18:34.927Z,100478.44
2024-02-14T11:23:34.331Z,100482.66
2024-02-14T11:28:40.194Z,100486.56
2024-02-14T11:33:39.177Z,100488.69
2024-02-14T11:38:38.518Z,100485.72
2024-02-14T11:43:37.527Z,100484.41
2024-02-14T11:48:38.508Z,100483.81
2024-02-14T11:53:40.690Z,100484.81
2024-02-14T11:58:39.630Z,100483.22
2024-02-14T12:03:40.166Z,100494.06
2024-02-14T12:08:39.259Z,100482.00
2024-02-14T12:13:39.211Z,100488.44
2024-02-14T12:18:38.481Z,100492.91
2024-02-14T12:23:38.265Z,100486.47
2024-02-14T12:28:38.525Z,100497.09
2024-02-14T12:33:37.600Z,100501.19
2024-02-14T12:38:36.552Z,100490.50
2024-02-14T12:43:35.639Z,100494.75
2024-02-14T12:48:34.532Z,100492.69
2024-02-14T12:53:33.427Z,100480.91
2024-02-14T12:58:33.776Z,100484.53
2024-02-14T13:03:34.765Z,100487.31
2024-02-14T13:08:33.940Z,100493.28
2024-02-14T13:13:33.103Z,100486.81
2024-02-14T13:18:32.573Z,100489.47
2024-02-14T13:23:31.777Z,100489.34
2024-02-14T13:28:30.887Z,100493.19
2024-02-14T13:33:29.836Z,100488.84
2024-02-14T13:38:30.063Z,100489.94
2024-02-14T13:43:28.966Z,100488.16
2024-02-14T13:48:27.854Z,100507.59
2024-02-14T13:53:26.694Z,100497.16
2024-02-14T13:58:25.622Z,100501.66
2024-02-14T14:03:24.344Z,100502.53
2024-02-14T14:08:24.687Z,100518.88
2024-02-14T14:13:23.598Z,100514.34
2024-02-14T14:18:22.656Z,100516.75
2024-02-14T14:23:21.539Z,100520.03
2024-02-14T14:28:25.659Z,100528.19
2024-02-14T14:33:26.581Z,100518.28
2024-02-14T14:38:27.700Z,100527.81
2024-02-14T14:43:26.520Z,100529.81
2024-02-14T14:48:26.989Z,100537.34
2024-02-14T14:53:26.050Z,100541.44
2024-02-14T14:58:28.802Z,100548.69
2024-02-14T15:03:28.192Z,100536.22
2024-02-14T15:08:28.532Z,100534.56
2024-02-14T15:13:28.671Z,100538.38
2024-02-14T15:18:28.180Z,100543.19
2024-02-14T15:23:27.091Z,100552.88
2024-02-14T15:28:27.913Z,100555.19
2024-02-14T15:33:29.721Z,100553.78
2024-02-14T15:38:29.184Z,100559.63
2024-02-14T15:43:30.138Z,100559.16
2024-02-14T15:48:32.543Z,100559.53
2024-02-14T15:53:32.851Z,100563.47
2024-02-14T15:58:31.662Z,100565.00
2024-02-14T16:03:30.594Z,100572.81
2024-02-14T16:08:29.451Z,100571.03
2024-02-14T16:13:29.874Z,100567.47
2024-02-14T16:18:28.751Z,100575.47
2024-02-14T16:23:27.597Z,100576.16
2024-02-14T16:28:26.392Z,100572.03
2024-02-14T16:33:25.613Z,100571.06
2024-02-14T16:38:24.460Z,100585.03
2024-02-14T16:43:23.231Z,100593.66
2024-02-14T16:48:23.272Z,100596.88
2024-02-14T16:53:22.124Z,100604.31
2024-02-14T16:58:20.861Z,100600.00
2024-02-14T17:03:21.434Z,100598.63
2024-02-14T17:08:21.936Z,100594.41
2024-02-14T17:13:20.767Z,100587.25
2024-02-14T17:18:20.046Z,100595.81
2024-02-14T17:23:18.987Z,100588.97
2024-02-14T17:28:18.229Z,100594.50
2024-02-14T17:33:17.249Z,100589.03
2024-02-14T17:38:16.197Z,100598.09
2024-02-14T17:43:15.800Z,100602.59
2024-02-14T17:48:15.255Z,100608.94
2024-02-14T17:53:14.100Z,100612.59
2024-02-14T17:58:13.035Z,100619.97
2024-02-14T18:03:12.034Z,100607.88
2024-02-14T18:08:11.384Z,100621.31
2024-02-14T18:13:10.230Z,100622.47
2024-02-14T18:18:10.367Z,100628.94
2024-02-14T18:23:09.442Z,100622.56
2024-02-14T18:28:08.433Z,100621.16
2024-02-14T18:33:13.032Z,100625.41
2024-02-14T18:38:12.451Z,100625.66
2024-02-14T18:43:12.391Z,100624.84
2024-02-14T18:48:12.822Z,100616.44
2024-02-14T18:53:11.820Z,100624.78
2024-02-14T18:58:10.662Z,100625.66
2024-02-14T19:03:09.595Z,100617.75
2024-02-14T19:08:10.368Z,100607.19
2024-02-14T19:13:09.373Z,100611.19
2024-02-14T19:18:08.633Z,100609.88
2024-02-14T19:23:08.393Z,100590.13
2024-02-14T19:28:10.485Z,100609.19
2024-02-14T19:33:09.589Z,100604.81
2024-02-14T19:38:08.447Z,100605.06
2024-02-14T19:43:07.306Z,100614.47
2024-02-14T19:48:06.671Z,100613.16
2024-02-14T19:53:05.672Z,100609.28
2024-02-14T19:58:12.546Z,100607.28
2024-02-14T20:03:12.165Z,100614.00
2024-02-14T20:08:11.098Z,100616.69
2024-02-14T20:13:10.014Z,100615.53
2024-02-14T20:18:09.585Z,100622.25
2024-02-14T20:23:09.611Z,100637.78
2024-02-14T20:28:08.665Z,100645.06
2024-02-14T20:33:08.577Z,100634.22
2024-02-14T20:38:11.023Z,100643.91
2024-02-14T20:43:09.867Z,100640.59
2024-02-14T20:53:08.769Z,100635.16
2024-02-14T20:58:07.779Z,100635.75
2024-02-14T21:03:06.735Z,100634.38
2024-02-14T21:08:05.765Z,100649.91
2024-02-14T21:13:04.554Z,100648.69
2024-02-14T21:18:03.571Z,100646.13
2024-02-14T21:23:02.933Z,100637.28
2024-02-14T21:28:01.744Z,100639.44
2024-02-14T21:33:02.127Z,100646.94
2024-02-14T21:38:01.118Z,100641.63
2024-02-14T21:43:00.089Z,100654.06
2024-02-14T21:48:01.928Z,100637.63
2024-02-14T21:53:01.119Z,100641.38
2024-02-14T21:58:00.144Z,100645.97
2024-02-14T22:02:59.144Z,100647.53
2024-02-14T22:07:58.582Z,100642.44
2024-02-14T22:13:00.075Z,100644.25
2024-02-14T22:17:58.985Z,100640.72
2024-02-14T22:22:58.235Z,100639.97
2024-02-14T22:27:58.341Z,100644.59
2024-02-14T22:32:57.583Z,100637.72
2024-02-14T22:37:56.562Z,100641.38
2024-02-14T22:42:55.354Z,100640.78
2024-02-14T22:47:54.189Z,100639.22
2024-02-14T22:52:53.268Z,100630.72
2024-02-14T22:57:52.178Z,100637.66
2024-02-14T23:02:51.246Z,100627.16
2024-02-14T23:07:50.829Z,100636.63
2024-02-14T23:12:49.705Z,100636.00
2024-02-14T23:17:48.571Z,100631.00
2024-02-14T23:22:47.701Z,100625.66
2024-02-14T23:27:48.554Z,100628.50
2024-02-14T23:32:47.738Z,100630.56
2024-02-14T23:37:47.543Z,100626.88
2024-02-14T23:42:47.393Z,100616.66
2024-02-14T23:47:46.329Z,100614.13
2024-02-14T23:52:45.366Z,100622.16
2024-02-14T23:57:47.579Z,100616.53
